Time;durP1;ratioP1;P1;durP2;ratioP2;P2;SDS_P1;SDS_P2;PMS_P1;PMS_P2;Temp;Humidity;BMP_temperature;BMP_pressure;BME280_temperature;BME280_humidity;BME280_pressure;Samples;Min_cycle;Max_cycle;Signal;HPM_P1;HPM_P2
2022/12/17 13:06:10;;;;;;;16.53;10.10;;;-1.90;99.90;;;;;;4919084;29;20452;-55
2022/12/17 13:08:35;;;;;;;22.33;10.40;;;-1.90;99.90;;;;;;4922029;29;20449;-57
2022/12/17 13:11:28;;;;;;;20.70;11.40;;;-1.90;99.90;;;;;;4927108;29;20589;-60
2022/12/17 13:13:59;;;;;;;21.37;9.57;;;-1.80;99.90;;;;;;4922873;29;20271;-64
2022/12/17 13:16:53;;;;;;;15.07;9.57;;;-1.80;99.90;;;;;;4923421;29;20424;-59
2022/12/17 13:19:32;;;;;;;20.90;9.67;;;-1.70;99.90;;;;;;4910180;29;20485;-61
2022/12/17 13:22:13;;;;;;;20.40;9.70;;;-1.70;99.90;;;;;;4917849;29;20456;-54
2022/12/17 13:24:43;;;;;;;17.03;9.97;;;-1.60;99.90;;;;;;4924563;29;20447;-53
2022/12/17 13:27:28;;;;;;;17.20;9.97;;;-1.60;99.90;;;;;;4921189;29;21091;-60
2022/12/17 13:29:54;;;;;;;25.67;10.73;;;-1.50;99.90;;;;;;4920594;29;20459;-60
2022/12/17 13:32:29;;;;;;;18.13;10.53;;;-1.30;99.90;;;;;;4924490;29;20514;-59
2022/12/17 13:35:24;;;;;;;22.77;10.57;;;-1.30;99.90;;;;;;4924885;29;20177;-59
2022/12/17 13:38:11;;;;;;;21.23;10.63;;;-1.30;99.90;;;;;;4920038;29;20467;-60
2022/12/17 13:40:43;;;;;;;12.90;7.97;;;-1.30;99.90;;;;;;4917736;29;20477;-58
2022/12/17 13:43:18;;;;;;;11.17;6.13;;;-1.30;99.90;;;;;;4920736;29;20453;-59
2022/12/17 13:45:44;;;;;;;10.40;6.27;;;-1.30;99.90;;;;;;4937321;28;20498;-58
2022/12/17 13:48:20;;;;;;;8.47;5.50;;;-1.30;99.90;;;;;;4930669;29;20545;-59
2022/12/17 13:50:53;;;;;;;8.80;5.20;;;-1.30;99.90;;;;;;4925218;29;20445;-60
2022/12/17 13:53:19;;;;;;;8.27;5.77;;;-1.30;99.90;;;;;;4924668;29;20524;-60
2022/12/17 13:55:50;;;;;;;9.43;5.27;;;-1.30;99.90;;;;;;4929221;29;21085;-59
2022/12/17 13:58:26;;;;;;;8.60;5.40;;;-1.30;99.90;;;;;;4925000;29;20465;-60
2022/12/17 14:01:04;;;;;;;10.40;5.63;;;-1.30;99.90;;;;;;4924562;29;20487;-58
2022/12/17 14:03:30;;;;;;;7.20;4.60;;;-1.30;99.90;;;;;;4963388;23;20507;-56
2022/12/17 14:05:56;;;;;;;7.97;5.53;;;-1.30;99.90;;;;;;4942231;28;20447;-54
2022/12/17 14:08:25;;;;;;;6.67;4.63;;;-1.30;99.90;;;;;;4944068;28;20442;-53
2022/12/17 14:12:20;;;;;;;7.23;5.10;;;-1.40;99.90;;;;;;4939982;28;20460;-54
2022/12/17 14:13:39;;;;;;;4.53;3.87;;;-1.40;99.90;;;;;;4938597;28;20487;-55
2022/12/17 14:16:05;;;;;;;6.90;4.47;;;-1.40;99.90;;;;;;4939597;28;20458;-56
2022/12/17 14:18:31;;;;;;;9.87;5.10;;;-1.40;99.90;;;;;;4943963;28;20467;-56
2022/12/17 14:20:57;;;;;;;7.00;4.63;;;-1.50;99.90;;;;;;4937576;28;21173;-54
2022/12/17 14:23:28;;;;;;;8.80;4.80;;;-1.50;99.90;;;;;;4937163;28;20522;-55
2022/12/17 14:25:54;;;;;;;8.60;5.00;;;-1.60;99.90;;;;;;4936475;28;20179;-56
2022/12/17 14:28:36;;;;;;;4.70;4.17;;;-1.60;99.90;;;;;;4945347;28;20451;-55
2022/12/17 14:31:14;;;;;;;8.90;5.30;;;-1.60;99.90;;;;;;4945847;28;20480;-56
2022/12/17 14:33:41;;;;;;;7.23;5.10;;;-1.60;99.90;;;;;;4937483;28;20459;-56
2022/12/17 14:36:22;;;;;;;7.97;5.23;;;-1.60;99.90;;;;;;4943247;28;20580;-58
2022/12/17 14:39:12;;;;;;;8.37;5.13;;;-1.70;99.90;;;;;;4958588;28;20453;-56
2022/12/17 14:44:28;;;;;;;7.10;4.40;;;-1.70;99.90;;;;;;4943719;28;20982;-56
2022/12/17 14:47:25;;;;;;;8.77;5.00;;;-1.80;99.90;;;;;;4940697;28;20425;-57
2022/12/17 14:50:10;;;;;;;8.47;5.90;;;-1.80;99.90;;;;;;4942597;28;20436;-56
2022/12/17 14:52:43;;;;;;;9.40;5.37;;;-1.90;99.90;;;;;;4940716;28;20443;-56
2022/12/17 14:55:38;;;;;;;8.17;5.40;;;-1.90;99.90;;;;;;4950441;28;20463;-59
2022/12/17 14:58:13;;;;;;;6.50;4.60;;;-2.00;99.90;;;;;;4971430;28;20431;-60
2022/12/17 15:00:42;;;;;;;8.20;5.40;;;-2.00;99.90;;;;;;4972733;28;20475;-59
2022/12/17 15:03:21;;;;;;;7.83;5.07;;;-2.10;99.90;;;;;;4967332;28;20471;-62
2022/12/17 15:06:08;;;;;;;9.30;5.57;;;-2.10;99.90;;;;;;4984022;28;20430;-60
2022/12/17 15:08:54;;;;;;;9.90;5.37;;;-2.10;99.90;;;;;;4972188;28;20426;-60
2022/12/17 15:11:21;;;;;;;9.30;5.63;;;-2.20;99.90;;;;;;4971880;28;20461;-58
2022/12/17 15:13:47;;;;;;;12.87;7.00;;;-2.30;99.90;;;;;;4969799;28;20451;-57
2022/12/17 15:16:12;;;;;;;11.47;6.50;;;-2.30;99.90;;;;;;4968105;28;20583;-59
2022/12/17 15:18:38;;;;;;;14.70;6.57;;;-2.30;99.90;;;;;;4985559;28;20594;-58
2022/12/17 15:21:04;;;;;;;14.53;7.27;;;-2.40;99.90;;;;;;4951835;28;20195;-57
2022/12/17 15:23:30;;;;;;;12.27;7.07;;;-2.40;99.90;;;;;;4948343;28;20196;-56
2022/12/17 15:25:56;;;;;;;10.47;6.13;;;-2.40;99.90;;;;;;4945365;28;20183;-59
2022/12/17 15:28:26;;;;;;;9.80;6.07;;;-2.50;99.90;;;;;;4946652;28;20468;-57
2022/12/17 15:30:52;;;;;;;16.03;7.17;;;-2.50;99.90;;;;;;4943480;28;20479;-55
2022/12/17 15:33:17;;;;;;;14.80;8.07;;;-2.50;99.90;;;;;;4946877;28;20483;-55
2022/12/17 15:35:43;;;;;;;16.17;8.43;;;-2.60;99.90;;;;;;4947171;28;20184;-57
2022/12/17 15:38:10;;;;;;;13.93;8.43;;;-2.60;99.90;;;;;;4947707;28;20188;-56
2022/12/17 15:40:36;;;;;;;13.73;8.47;;;-2.60;99.90;;;;;;4942563;28;20215;-57
2022/12/17 15:43:12;;;;;;;11.13;6.90;;;-2.70;99.90;;;;;;4943455;28;20468;-57
2022/12/17 15:45:46;;;;;;;12.80;7.03;;;-2.80;99.90;;;;;;4945669;28;20439;-57
2022/12/17 15:48:17;;;;;;;12.33;7.43;;;-2.80;99.90;;;;;;4945697;28;20448;-58
2022/12/17 15:50:43;;;;;;;11.50;7.40;;;-2.90;99.90;;;;;;4946027;28;20466;-57
2022/12/17 15:53:08;;;;;;;18.40;8.33;;;-3.00;99.90;;;;;;4948797;28;20494;-57
2022/12/17 15:55:35;;;;;;;15.07;8.77;;;-3.10;99.90;;;;;;4948490;28;20191;-57
2022/12/17 15:58:01;;;;;;;17.47;9.60;;;-3.10;99.90;;;;;;4944755;28;20198;-57
2022/12/17 16:00:27;;;;;;;15.67;9.63;;;-3.20;99.90;;;;;;4948178;28;20463;-58
2022/12/17 16:02:52;;;;;;;16.60;9.67;;;-3.30;99.90;;;;;;4948722;28;20467;-57
2022/12/17 16:05:19;;;;;;;16.17;9.83;;;-3.40;99.90;;;;;;4959226;28;20180;-58
2022/12/17 16:07:45;;;;;;;17.57;9.73;;;-3.40;99.90;;;;;;4948414;28;20587;-59
2022/12/17 16:10:13;;;;;;;19.57;10.13;;;-3.50;99.90;;;;;;4946086;28;20447;-62
2022/12/17 16:14:07;;;;;;;19.00;10.57;;;-3.70;99.90;;;;;;5102851;27;20977;-57
2022/12/17 16:16:33;;;;;;;15.27;9.80;;;-3.70;99.90;;;;;;5110371;27;20192;-58
2022/12/17 16:19:00;;;;;;;14.73;8.80;;;-3.70;99.90;;;;;;5113247;28;20175;-57
2022/12/17 16:21:27;;;;;;;15.10;8.30;;;-3.70;99.90;;;;;;5088373;28;20194;-58
2022/12/17 16:23:53;;;;;;;15.60;9.17;;;-3.70;99.90;;;;;;5092723;28;22346;-58
2022/12/17 16:26:18;;;;;;;15.93;9.77;;;-3.80;99.90;;;;;;5084209;28;20436;-54
2022/12/17 16:28:44;;;;;;;17.20;11.00;;;-3.90;99.90;;;;;;5093884;28;20274;-58
2022/12/17 16:31:13;;;;;;;20.10;12.20;;;-4.00;99.90;;;;;;5097064;28;20206;-57
2022/12/17 16:33:40;;;;;;;26.63;13.60;;;-4.00;99.90;;;;;;5087939;28;20667;-61
2022/12/17 16:36:10;;;;;;;26.90;13.50;;;-4.10;99.90;;;;;;5093409;28;20968;-60
2022/12/17 16:38:46;;;;;;;29.97;14.90;;;-4.10;99.90;;;;;;5095234;28;20460;-57
2022/12/17 16:41:13;;;;;;;24.40;12.43;;;-4.20;99.90;;;;;;5096380;28;20532;-60
2022/12/17 16:43:39;;;;;;;24.77;13.73;;;-4.30;99.90;;;;;;5095114;28;20514;-56
2022/12/17 16:46:21;;;;;;;28.63;12.33;;;-4.30;99.90;;;;;;5100452;28;20438;-57
2022/12/17 16:48:47;;;;;;;28.50;13.47;;;-4.40;99.90;;;;;;5110493;28;20433;-61
2022/12/17 16:51:17;;;;;;;22.60;12.60;;;-4.40;99.90;;;;;;5111394;28;20425;-61
2022/12/17 16:53:43;;;;;;;26.23;12.47;;;-4.50;99.90;;;;;;5107126;28;20205;-59
2022/12/17 16:56:18;;;;;;;37.07;16.17;;;-4.50;99.90;;;;;;5091529;28;21086;-60
2022/12/17 16:58:43;;;;;;;34.50;14.83;;;-4.50;99.90;;;;;;5099343;28;20426;-60
2022/12/17 17:01:10;;;;;;;26.37;13.43;;;-4.60;99.90;;;;;;5110188;28;20436;-60
2022/12/17 17:03:42;;;;;;;26.33;14.60;;;-4.60;99.90;;;;;;5106461;28;20261;-61
2022/12/17 17:06:09;;;;;;;26.20;12.90;;;-4.70;99.90;;;;;;5109273;28;20428;-60
2022/12/17 17:08:36;;;;;;;29.40;14.80;;;-4.70;99.90;;;;;;5108528;28;20451;-59
2022/12/17 17:11:14;;;;;;;24.37;13.13;;;-4.80;99.90;;;;;;5095748;28;20427;-59
2022/12/17 17:13:40;;;;;;;26.40;13.97;;;-4.80;99.90;;;;;;5102306;28;20472;-58
2022/12/17 17:16:08;;;;;;;32.17;14.60;;;-4.90;99.90;;;;;;5091220;28;20530;-60
2022/12/17 17:18:35;;;;;;;29.93;15.50;;;-5.00;99.90;;;;;;5106796;28;20450;-56
2022/12/17 17:21:18;;;;;;;25.47;14.70;;;-5.00;99.90;;;;;;5107836;27;20427;-51
2022/12/17 17:23:45;;;;;;;24.63;14.07;;;-5.00;99.90;;;;;;5092786;28;20489;-53
2022/12/17 17:26:12;;;;;;;31.53;14.90;;;-5.10;99.90;;;;;;5086799;28;20641;-58
2022/12/17 17:28:37;;;;;;;27.37;15.00;;;-5.10;99.90;;;;;;5091719;27;20470;-60
2022/12/17 17:31:06;;;;;;;27.83;13.70;;;-5.10;99.90;;;;;;5075081;28;20445;-59
2022/12/17 17:33:34;;;;;;;27.40;13.53;;;-5.10;99.90;;;;;;5083258;28;20463;-54
2022/12/17 17:36:04;;;;;;;29.37;15.33;;;-5.20;99.90;;;;;;5084683;28;20427;-57
2022/12/17 17:38:32;;;;;;;39.90;14.53;;;-5.20;99.90;;;;;;5090452;28;21091;-61
2022/12/17 17:40:58;;;;;;;24.97;13.70;;;-5.20;99.90;;;;;;5078134;28;20427;-55
2022/12/17 17:43:23;;;;;;;33.47;16.10;;;-5.30;99.90;;;;;;5089975;28;20466;-59
2022/12/17 17:45:49;;;;;;;30.40;15.33;;;-5.30;99.90;;;;;;5081604;28;20670;-58
2022/12/17 17:48:15;;;;;;;32.73;16.67;;;-5.30;99.90;;;;;;5093440;28;20667;-57
2022/12/17 17:50:40;;;;;;;27.80;15.23;;;-5.30;99.90;;;;;;5074578;28;20216;-57
2022/12/17 17:53:07;;;;;;;30.53;15.77;;;-5.40;99.90;;;;;;5077262;28;20208;-55
2022/12/17 17:55:36;;;;;;;34.67;16.07;;;-5.40;99.90;;;;;;5090180;28;20175;-61
2022/12/17 17:58:01;;;;;;;35.43;15.57;;;-5.40;99.90;;;;;;5097555;28;20417;-62
2022/12/17 18:00:27;;;;;;;29.57;14.53;;;-5.40;99.90;;;;;;5096011;28;20428;-58
2022/12/17 18:02:52;;;;;;;30.63;13.00;;;-5.50;99.90;;;;;;5101663;28;20210;-59
2022/12/17 18:05:18;;;;;;;28.90;15.30;;;-5.50;99.90;;;;;;5094603;28;20572;-59
2022/12/17 18:07:44;;;;;;;33.53;16.70;;;-5.50;99.90;;;;;;5103312;28;20318;-58
2022/12/17 18:10:09;;;;;;;32.27;15.47;;;-5.50;99.90;;;;;;5104909;28;20244;-61
2022/12/17 18:15:19;;;;;;;31.97;15.33;;;-5.60;99.90;;;;;;5100521;28;20173;-61
2022/12/17 18:17:48;;;;;;;31.30;14.20;;;-5.60;99.90;;;;;;5103267;28;20450;-60
2022/12/17 18:20:14;;;;;;;26.43;13.97;;;-5.60;99.90;;;;;;5102082;28;20248;-59
2022/12/17 18:22:40;;;;;;;35.93;15.13;;;-5.60;99.90;;;;;;5094138;28;20553;-60
2022/12/17 18:25:06;;;;;;;25.93;14.70;;;-5.70;99.90;;;;;;5091975;28;20444;-57
2022/12/17 18:27:32;;;;;;;29.50;14.80;;;-5.70;99.90;;;;;;5091953;28;20278;-62
2022/12/17 18:29:57;;;;;;;32.03;15.70;;;-5.70;99.90;;;;;;5095360;28;20430;-61
2022/12/17 18:32:23;;;;;;;38.60;16.70;;;-5.80;99.90;;;;;;5093700;28;20164;-60
2022/12/17 18:34:49;;;;;;;35.83;16.23;;;-5.80;99.90;;;;;;5103268;28;20255;-63
2022/12/17 18:37:14;;;;;;;46.73;22.03;;;-5.80;99.90;;;;;;5090877;28;21042;-59
2022/12/17 18:39:40;;;;;;;38.30;18.67;;;-5.80;99.90;;;;;;5090306;28;20183;-64
2022/12/17 18:44:51;;;;;;;32.53;16.43;;;-5.90;99.90;;;;;;5088931;28;20183;-62
2022/12/17 18:47:17;;;;;;;28.60;15.27;;;-5.90;99.90;;;;;;5095252;28;20433;-63
2022/12/17 18:49:43;;;;;;;28.57;15.17;;;-5.90;99.90;;;;;;5093820;28;20192;-62
2022/12/17 18:52:09;;;;;;;30.60;14.53;;;-5.90;99.90;;;;;;5089092;28;20486;-63
2022/12/17 18:54:35;;;;;;;34.27;15.83;;;-6.00;99.90;;;;;;5095857;28;20445;-63
2022/12/17 18:57:01;;;;;;;34.47;15.20;;;-6.00;99.90;;;;;;5085322;28;20456;-62
2022/12/17 18:59:28;;;;;;;30.53;15.37;;;-6.00;99.90;;;;;;5095030;28;20197;-62
2022/12/17 19:01:55;;;;;;;32.43;16.60;;;-6.00;99.90;;;;;;5092654;28;20195;-59
2022/12/17 19:04:21;;;;;;;29.47;14.60;;;-6.00;99.90;;;;;;5089407;28;20464;-63
2022/12/17 19:06:48;;;;;;;34.83;15.70;;;-6.10;99.90;;;;;;5097650;28;20856;-63
2022/12/17 19:09:35;;;;;;;26.87;14.80;;;-6.10;99.90;;;;;;5093816;28;20445;-62
2022/12/17 19:12:03;;;;;;;37.23;16.57;;;-6.20;99.90;;;;;;5090707;28;20482;-63
2022/12/17 19:14:29;;;;;;;33.67;16.50;;;-6.20;99.90;;;;;;5090360;28;20438;-59
2022/12/17 19:16:56;;;;;;;36.93;17.00;;;-6.20;99.90;;;;;;5088426;28;20633;-65
2022/12/17 19:19:23;;;;;;;31.93;16.93;;;-6.20;99.90;;;;;;5091829;28;20548;-58
2022/12/17 19:21:50;;;;;;;42.87;18.90;;;-6.20;99.90;;;;;;5085774;28;20432;-58
2022/12/17 19:24:17;;;;;;;38.00;18.50;;;-6.30;99.90;;;;;;5093078;28;20450;-57
2022/12/17 19:26:43;;;;;;;49.27;21.17;;;-6.40;99.90;;;;;;5092085;28;20433;-59
2022/12/17 19:29:12;;;;;;;34.30;17.90;;;-6.40;99.90;;;;;;5090969;28;20436;-59
2022/12/17 19:31:38;;;;;;;40.97;19.30;;;-6.40;99.90;;;;;;5089907;28;20445;-59
2022/12/17 19:34:06;;;;;;;35.17;16.43;;;-6.40;99.90;;;;;;5078192;28;20203;-62
2022/12/17 19:36:33;;;;;;;31.45;16.02;;;-6.50;99.90;;;;;;5079674;28;20421;-59
2022/12/17 19:39:01;;;;;;;32.87;17.03;;;-6.50;99.90;;;;;;5080314;28;20187;-61
2022/12/17 19:41:28;;;;;;;34.93;15.37;;;-6.50;99.90;;;;;;5078697;28;20444;-66
2022/12/17 19:43:57;;;;;;;34.40;16.42;;;-6.50;99.90;;;;;;5082757;28;20526;-57
2022/12/17 19:46:23;;;;;;;32.60;17.50;;;-6.50;99.90;;;;;;5078767;28;20307;-59
2022/12/17 19:48:50;;;;;;;44.05;20.77;;;-6.50;99.90;;;;;;5077666;28;20523;-58
2022/12/17 19:51:19;;;;;;;38.90;20.03;;;-6.50;99.90;;;;;;5076060;28;20164;-59
2022/12/17 19:53:45;;;;;;;43.63;19.87;;;-6.50;99.90;;;;;;5077288;28;20460;-61
2022/12/17 19:56:26;;;;;;;34.67;17.60;;;-6.50;99.90;;;;;;5072888;28;20494;-60
2022/12/17 19:58:54;;;;;;;37.83;19.10;;;-6.50;99.90;;;;;;5071406;28;20528;-61
2022/12/17 20:01:25;;;;;;;37.90;18.90;;;-6.60;99.90;;;;;;5067981;28;21829;-59
2022/12/17 20:03:52;;;;;;;39.50;19.00;;;-6.60;99.90;;;;;;5066695;28;20466;-64
2022/12/17 20:06:19;;;;;;;39.15;18.70;;;-6.60;99.90;;;;;;5074399;28;20516;-63
2022/12/17 20:08:45;;;;;;;38.87;18.43;;;-6.60;99.90;;;;;;5080208;28;20905;-58
2022/12/17 20:14:20;;;;;;;36.47;18.10;;;-6.60;99.90;;;;;;5086610;28;20324;-58
2022/12/17 20:16:57;;;;;;;40.78;18.85;;;-6.60;99.90;;;;;;5081191;28;20278;-59
2022/12/17 20:19:26;;;;;;;42.17;19.65;;;-6.60;99.90;;;;;;5075871;28;20262;-58
2022/12/17 20:21:53;;;;;;;30.30;15.57;;;-6.60;99.90;;;;;;5085663;28;20196;-61
2022/12/17 20:24:19;;;;;;;32.72;16.80;;;-6.70;99.90;;;;;;5081106;28;20503;-59
2022/12/17 20:26:47;;;;;;;39.40;19.33;;;-6.70;99.90;;;;;;5083378;28;20184;-61
2022/12/17 20:29:13;;;;;;;38.53;18.33;;;-6.80;99.90;;;;;;5083574;28;20180;-60
2022/12/17 20:31:39;;;;;;;39.90;18.67;;;-6.80;99.90;;;;;;5081339;28;20491;-58
2022/12/17 20:34:07;;;;;;;38.00;17.80;;;-6.80;99.90;;;;;;5079959;28;20618;-58
2022/12/17 20:36:32;;;;;;;36.33;17.88;;;-6.90;99.90;;;;;;5070167;28;20557;-59
2022/12/17 20:38:58;;;;;;;40.50;19.30;;;-6.90;99.90;;;;;;5084600;28;20230;-59
2022/12/17 20:41:27;;;;;;;44.97;21.30;;;-6.90;99.90;;;;;;5078970;28;20365;-59
2022/12/17 20:43:53;;;;;;;42.08;18.92;;;-6.90;99.90;;;;;;5079528;28;20207;-57
2022/12/17 20:46:21;;;;;;;37.50;17.20;;;-7.00;99.90;;;;;;5072468;28;20171;-61
2022/12/17 20:48:47;;;;;;;43.67;19.88;;;-7.00;99.90;;;;;;5085111;28;20634;-58
2022/12/17 20:51:21;;;;;;;38.33;18.27;;;-7.00;99.90;;;;;;5088285;28;20215;-60
2022/12/17 20:53:49;;;;;;;41.65;17.58;;;-7.00;99.90;;;;;;5085843;28;20191;-59
2022/12/17 20:56:18;;;;;;;37.22;17.67;;;-7.00;99.90;;;;;;5078091;28;21134;-60
2022/12/17 20:58:44;;;;;;;38.35;18.17;;;-7.10;99.90;;;;;;5079747;28;20184;-60
2022/12/17 21:01:15;;;;;;;41.77;18.50;;;-7.10;99.90;;;;;;5081304;28;20222;-61
2022/12/17 21:03:41;;;;;;;51.67;20.42;;;-7.10;99.90;;;;;;5071833;28;20221;-60
2022/12/17 21:06:24;;;;;;;46.88;19.50;;;-7.20;99.90;;;;;;5086228;28;20653;-59
2022/12/17 21:08:52;;;;;;;52.00;21.23;;;-7.20;99.90;;;;;;5088400;28;20181;-58
2022/12/17 21:11:21;;;;;;;52.47;22.38;;;-7.20;99.90;;;;;;5097413;28;20180;-60
2022/12/17 21:13:46;;;;;;;57.25;22.05;;;-7.20;99.90;;;;;;5086811;28;20218;-59
2022/12/17 21:16:15;;;;;;;44.50;21.40;;;-7.20;99.90;;;;;;5092267;28;20183;-60
2022/12/17 21:18:41;;;;;;;42.70;20.10;;;-7.20;99.90;;;;;;5099468;28;20221;-60
2022/12/17 21:21:09;;;;;;;42.10;19.40;;;-7.10;99.90;;;;;;5093572;28;20179;-61
2022/12/17 21:23:36;;;;;;;43.13;20.27;;;-7.10;99.90;;;;;;5087810;28;20473;-60
2022/12/17 21:26:12;;;;;;;49.20;21.42;;;-7.10;99.90;;;;;;5093170;28;20167;-58
2022/12/17 21:28:40;;;;;;;46.08;19.80;;;-7.10;99.90;;;;;;5095336;28;20165;-57
2022/12/17 21:31:14;;;;;;;47.05;21.35;;;-7.10;99.90;;;;;;5094842;28;20172;-61
2022/12/17 21:33:40;;;;;;;45.90;21.33;;;-7.10;99.90;;;;;;5090631;28;20229;-58
2022/12/17 21:36:06;;;;;;;45.17;20.90;;;-7.10;99.90;;;;;;5083367;22;20231;-59
2022/12/17 21:38:31;;;;;;;44.30;21.50;;;-7.00;99.90;;;;;;5043218;28;20199;-59
2022/12/17 21:41:14;;;;;;;47.97;21.27;;;-7.00;99.90;;;;;;5047177;28;20287;-59
2022/12/17 21:43:41;;;;;;;44.08;20.45;;;-7.00;99.90;;;;;;5041693;28;20627;-58
2022/12/17 21:46:08;;;;;;;45.25;21.38;;;-6.90;99.90;;;;;;5046497;28;20195;-58
2022/12/17 21:48:36;;;;;;;44.88;21.30;;;-7.00;99.90;;;;;;5042064;28;20264;-58
2022/12/17 21:51:07;;;;;;;47.78;21.63;;;-6.90;99.90;;;;;;5042084;28;20225;-58
2022/12/17 21:53:33;;;;;;;47.13;22.75;;;-6.90;99.90;;;;;;5018834;28;20573;-58
2022/12/17 21:56:07;;;;;;;51.97;22.00;;;-6.90;99.90;;;;;;5047331;28;20214;-59
2022/12/17 21:58:33;;;;;;;50.00;22.33;;;-6.90;99.90;;;;;;5037031;28;20171;-59
2022/12/17 22:01:11;;;;;;;47.33;21.30;;;-6.90;99.90;;;;;;5044404;28;20225;-60
2022/12/17 22:03:36;;;;;;;42.45;20.13;;;-6.80;99.90;;;;;;5036595;28;20467;-59
2022/12/17 22:06:11;;;;;;;38.87;19.30;;;-6.80;99.90;;;;;;5039642;28;20208;-59
2022/12/17 22:08:37;;;;;;;45.47;20.20;;;-6.80;99.90;;;;;;5026128;28;20180;-59
2022/12/17 22:11:17;;;;;;;48.92;20.00;;;-6.80;99.90;;;;;;5045459;28;20180;-59
2022/12/17 22:14:05;;;;;;;49.33;21.80;;;-6.80;99.90;;;;;;5042255;28;20272;-60
2022/12/17 22:16:30;;;;;;;43.05;20.67;;;-6.90;99.90;;;;;;5042227;28;20214;-59
2022/12/17 22:18:58;;;;;;;47.17;19.60;;;-6.80;99.90;;;;;;5036756;28;20706;-60
2022/12/17 22:21:24;;;;;;;44.80;21.15;;;-6.80;99.90;;;;;;5032535;28;20188;-58
2022/12/17 22:23:50;;;;;;;51.17;21.90;;;-6.80;99.90;;;;;;5017745;28;20602;-60
2022/12/17 22:26:17;;;;;;;54.00;23.87;;;-6.70;99.90;;;;;;5034658;28;20445;-58
2022/12/17 22:28:47;;;;;;;46.80;21.58;;;-6.70;99.90;;;;;;5042792;28;20390;-58
2022/12/17 22:33:58;;;;;;;50.90;21.03;;;-6.70;99.90;;;;;;5044413;28;20202;-57
2022/12/17 22:36:27;;;;;;;40.20;19.47;;;-6.60;99.90;;;;;;5044539;28;20463;-58
2022/12/17 22:38:52;;;;;;;43.72;20.88;;;-6.50;99.90;;;;;;5030868;28;20434;-58
2022/12/17 22:44:02;;;;;;;44.78;19.58;;;-6.50;99.90;;;;;;5034089;28;20269;-58
2022/12/17 22:46:29;;;;;;;44.93;20.40;;;-6.40;99.90;;;;;;5031482;28;20200;-58
2022/12/17 22:48:56;;;;;;;47.20;20.37;;;-6.30;99.90;;;;;;5047763;28;20436;-58
2022/12/17 22:51:23;;;;;;;47.80;19.77;;;-6.30;99.90;;;;;;5029877;28;20542;-58
2022/12/17 22:53:48;;;;;;;49.13;20.87;;;-6.30;99.90;;;;;;5046233;28;20439;-57
2022/12/17 22:56:14;;;;;;;52.43;21.53;;;-6.30;99.90;;;;;;5041917;28;20609;-58
2022/12/17 22:58:40;;;;;;;57.73;22.47;;;-6.30;99.90;;;;;;5043994;28;20435;-57
2022/12/17 23:01:06;;;;;;;51.33;21.60;;;-6.20;99.90;;;;;;5043287;28;20496;-57
2022/12/17 23:03:31;;;;;;;57.20;24.10;;;-6.20;99.90;;;;;;5040320;28;20588;-57
2022/12/17 23:06:11;;;;;;;50.47;20.40;;;-6.20;99.90;;;;;;5039698;28;20197;-58
2022/12/17 23:08:37;;;;;;;71.67;25.00;;;-6.10;99.90;;;;;;5045122;28;20176;-59
2022/12/17 23:11:13;;;;;;;56.00;22.33;;;-6.10;99.90;;;;;;5055165;28;20435;-58
2022/12/17 23:13:39;;;;;;;58.10;22.70;;;-6.10;99.90;;;;;;5049545;28;20442;-57
2022/12/17 23:16:05;;;;;;;54.17;22.60;;;-6.10;99.90;;;;;;5048171;28;21030;-58
2022/12/17 23:18:31;;;;;;;48.60;20.53;;;-6.00;99.90;;;;;;5040981;28;22426;-58
2022/12/17 23:21:06;;;;;;;56.33;23.63;;;-6.00;99.90;;;;;;5041120;28;20450;-58
2022/12/17 23:23:31;;;;;;;57.10;22.45;;;-6.00;99.90;;;;;;5026835;28;20448;-58
2022/12/17 23:25:57;;;;;;;58.20;22.00;;;-6.00;99.90;;;;;;5042334;28;20192;-58
2022/12/17 23:28:22;;;;;;;53.03;22.00;;;-6.00;99.90;;;;;;5044946;28;20184;-58
2022/12/17 23:30:48;;;;;;;50.73;21.73;;;-6.00;99.90;;;;;;5047698;28;20192;-58
2022/12/17 23:33:14;;;;;;;56.47;21.43;;;-6.00;99.90;;;;;;5049404;28;20290;-58
2022/12/17 23:35:39;;;;;;;50.37;21.73;;;-6.00;99.90;;;;;;5038983;28;20710;-58
2022/12/17 23:38:05;;;;;;;58.20;22.40;;;-6.00;99.90;;;;;;5046475;28;20201;-58
2022/12/17 23:40:30;;;;;;;52.13;21.03;;;-5.90;99.90;;;;;;5040365;28;20200;-58
2022/12/17 23:42:57;;;;;;;69.47;22.30;;;-5.90;99.90;;;;;;5046080;28;20317;-58
2022/12/17 23:45:22;;;;;;;57.50;23.13;;;-5.90;99.90;;;;;;5041871;28;20751;-57
2022/12/17 23:47:48;;;;;;;68.47;25.33;;;-5.90;99.90;;;;;;5044249;28;21049;-58
2022/12/17 23:50:14;;;;;;;57.43;22.00;;;-5.90;99.90;;;;;;5043103;28;20176;-57
2022/12/17 23:52:39;;;;;;;54.90;22.70;;;-5.90;99.90;;;;;;5042176;28;20181;-58
2022/12/17 23:55:05;;;;;;;61.10;23.53;;;-5.90;99.90;;;;;;5043695;28;20188;-59
2022/12/17 23:57:31;;;;;;;62.83;26.27;;;-5.90;99.90;;;;;;5045384;28;20263;-58
2022/12/17 23:59:56;;;;;;;58.53;23.30;;;-5.80;99.90;;;;;;5041057;28;20442;-58
